sensor_id;sensor_type;location;lat;lon;timestamp;P1;durP1;ratioP1;P2;durP2;ratioP2
48935;SDS011;34745;52.276;10.528;2023-03-13T00:01:08;21.00;;;5.63;;
48935;SDS011;34745;52.276;10.528;2023-03-13T00:03:39;17.60;;;5.27;;
48935;SDS011;34745;52.276;10.528;2023-03-13T00:06:06;24.57;;;5.87;;
48935;SDS011;34745;52.276;10.528;2023-03-13T00:08:33;20.73;;;5.20;;
48935;SDS011;34745;52.276;10.528;2023-03-13T00:11:03;23.27;;;5.30;;
48935;SDS011;34745;52.276;10.528;2023-03-13T00:13:32;26.73;;;6.50;;
48935;SDS011;34745;52.276;10.528;2023-03-13T00:16:00;21.53;;;5.33;;
48935;SDS011;34745;52.276;10.528;2023-03-13T00:18:29;27.23;;;5.77;;
48935;SDS011;34745;52.276;10.528;2023-03-13T00:20:57;29.20;;;5.97;;
48935;SDS011;34745;52.276;10.528;2023-03-13T00:23:24;29.13;;;6.13;;
48935;SDS011;34745;52.276;10.528;2023-03-13T00:25:55;25.83;;;5.87;;
48935;SDS011;34745;52.276;10.528;2023-03-13T00:28:23;28.17;;;5.70;;
48935;SDS011;34745;52.276;10.528;2023-03-13T00:30:50;20.10;;;5.70;;
48935;SDS011;34745;52.276;10.528;2023-03-13T00:33:25;24.90;;;5.53;;
48935;SDS011;34745;52.276;10.528;2023-03-13T00:35:57;27.07;;;6.00;;
48935;SDS011;34745;52.276;10.528;2023-03-13T00:38:24;24.07;;;5.53;;
48935;SDS011;34745;52.276;10.528;2023-03-13T00:41:00;20.43;;;4.47;;
48935;SDS011;34745;52.276;10.528;2023-03-13T00:43:28;23.93;;;5.53;;
48935;SDS011;34745;52.276;10.528;2023-03-13T00:45:55;25.60;;;5.50;;
48935;SDS011;34745;52.276;10.528;2023-03-13T00:48:23;21.23;;;5.77;;
48935;SDS011;34745;52.276;10.528;2023-03-13T00:50:50;27.43;;;5.50;;
48935;SDS011;34745;52.276;10.528;2023-03-13T00:53:19;21.17;;;4.97;;
48935;SDS011;34745;52.276;10.528;2023-03-13T00:55:50;27.93;;;5.87;;
48935;SDS011;34745;52.276;10.528;2023-03-13T00:58:18;21.37;;;5.47;;
48935;SDS011;34745;52.276;10.528;2023-03-13T01:00:45;30.50;;;5.73;;
48935;SDS011;34745;52.276;10.528;2023-03-13T01:03:12;23.93;;;5.13;;
48935;SDS011;34745;52.276;10.528;2023-03-13T01:05:40;20.53;;;5.73;;
48935;SDS011;34745;52.276;10.528;2023-03-13T01:08:07;21.97;;;5.30;;
48935;SDS011;34745;52.276;10.528;2023-03-13T01:10:35;19.63;;;5.20;;
48935;SDS011;34745;52.276;10.528;2023-03-13T01:13:02;19.63;;;5.83;;
48935;SDS011;34745;52.276;10.528;2023-03-13T01:15:33;25.57;;;5.63;;
48935;SDS011;34745;52.276;10.528;2023-03-13T01:18:01;28.10;;;5.27;;
48935;SDS011;34745;52.276;10.528;2023-03-13T01:20:28;29.00;;;5.23;;
48935;SDS011;34745;52.276;10.528;2023-03-13T01:22:55;22.37;;;5.53;;
48935;SDS011;34745;52.276;10.528;2023-03-13T01:25:23;21.80;;;5.23;;
48935;SDS011;34745;52.276;10.528;2023-03-13T01:27:51;19.33;;;4.50;;
48935;SDS011;34745;52.276;10.528;2023-03-13T01:30:19;21.60;;;5.40;;
48935;SDS011;34745;52.276;10.528;2023-03-13T01:32:46;19.50;;;4.20;;
48935;SDS011;34745;52.276;10.528;2023-03-13T01:35:13;22.97;;;5.13;;
48935;SDS011;34745;52.276;10.528;2023-03-13T01:37:40;32.50;;;5.97;;
48935;SDS011;34745;52.276;10.528;2023-03-13T01:40:07;18.07;;;4.20;;
48935;SDS011;34745;52.276;10.528;2023-03-13T01:42:49;21.77;;;5.93;;
48935;SDS011;34745;52.276;10.528;2023-03-13T01:48:16;22.77;;;4.93;;
48935;SDS011;34745;52.276;10.528;2023-03-13T01:50:43;18.60;;;5.33;;
48935;SDS011;34745;52.276;10.528;2023-03-13T01:53:10;25.97;;;4.60;;
48935;SDS011;34745;52.276;10.528;2023-03-13T01:55:38;32.77;;;5.70;;
48935;SDS011;34745;52.276;10.528;2023-03-13T01:58:06;26.87;;;4.80;;
48935;SDS011;34745;52.276;10.528;2023-03-13T02:00:34;24.07;;;6.13;;
48935;SDS011;34745;52.276;10.528;2023-03-13T02:03:03;20.70;;;4.40;;
48935;SDS011;34745;52.276;10.528;2023-03-13T02:05:34;20.37;;;4.93;;
48935;SDS011;34745;52.276;10.528;2023-03-13T02:08:03;28.30;;;6.10;;
48935;SDS011;34745;52.276;10.528;2023-03-13T02:10:35;18.77;;;4.73;;
48935;SDS011;34745;52.276;10.528;2023-03-13T02:13:08;21.67;;;5.57;;
48935;SDS011;34745;52.276;10.528;2023-03-13T02:15:40;26.63;;;5.33;;
48935;SDS011;34745;52.276;10.528;2023-03-13T02:18:07;17.23;;;4.93;;
48935;SDS011;34745;52.276;10.528;2023-03-13T02:20:35;22.23;;;4.90;;
48935;SDS011;34745;52.276;10.528;2023-03-13T02:23:06;28.50;;;6.07;;
48935;SDS011;34745;52.276;10.528;2023-03-13T02:25:42;30.37;;;6.13;;
48935;SDS011;34745;52.276;10.528;2023-03-13T02:28:12;31.93;;;6.63;;
48935;SDS011;34745;52.276;10.528;2023-03-13T02:30:45;25.73;;;6.43;;
48935;SDS011;34745;52.276;10.528;2023-03-13T02:33:15;20.17;;;5.77;;
48935;SDS011;34745;52.276;10.528;2023-03-13T02:35:44;36.50;;;6.93;;
48935;SDS011;34745;52.276;10.528;2023-03-13T02:38:12;36.20;;;10.20;;
48935;SDS011;34745;52.276;10.528;2023-03-13T02:40:45;25.73;;;6.43;;
48935;SDS011;34745;52.276;10.528;2023-03-13T02:43:16;23.83;;;6.20;;
48935;SDS011;34745;52.276;10.528;2023-03-13T02:45:59;38.17;;;7.53;;
48935;SDS011;34745;52.276;10.528;2023-03-13T02:48:32;28.50;;;7.00;;
48935;SDS011;34745;52.276;10.528;2023-03-13T02:51:01;28.47;;;7.00;;
48935;SDS011;34745;52.276;10.528;2023-03-13T02:53:31;32.20;;;6.93;;
48935;SDS011;34745;52.276;10.528;2023-03-13T02:56:01;25.77;;;6.70;;
48935;SDS011;34745;52.276;10.528;2023-03-13T02:58:34;32.47;;;7.13;;
48935;SDS011;34745;52.276;10.528;2023-03-13T03:01:15;32.63;;;7.17;;
48935;SDS011;34745;52.276;10.528;2023-03-13T03:03:42;33.77;;;7.20;;
48935;SDS011;34745;52.276;10.528;2023-03-13T03:06:10;25.27;;;7.20;;
48935;SDS011;34745;52.276;10.528;2023-03-13T03:08:37;29.20;;;7.23;;
48935;SDS011;34745;52.276;10.528;2023-03-13T03:11:08;29.60;;;6.63;;
48935;SDS011;34745;52.276;10.528;2023-03-13T03:13:36;31.77;;;6.70;;
48935;SDS011;34745;52.276;10.528;2023-03-13T03:16:07;28.23;;;7.57;;
48935;SDS011;34745;52.276;10.528;2023-03-13T03:18:36;41.53;;;8.80;;
48935;SDS011;34745;52.276;10.528;2023-03-13T03:21:04;32.10;;;8.80;;
48935;SDS011;34745;52.276;10.528;2023-03-13T03:23:31;34.07;;;8.33;;
48935;SDS011;34745;52.276;10.528;2023-03-13T03:25:59;26.07;;;7.60;;
48935;SDS011;34745;52.276;10.528;2023-03-13T03:28:27;29.33;;;7.50;;
48935;SDS011;34745;52.276;10.528;2023-03-13T03:30:55;26.27;;;6.27;;
48935;SDS011;34745;52.276;10.528;2023-03-13T03:33:22;31.83;;;6.20;;
48935;SDS011;34745;52.276;10.528;2023-03-13T03:35:50;25.93;;;5.97;;
48935;SDS011;34745;52.276;10.528;2023-03-13T03:38:17;27.53;;;5.13;;
48935;SDS011;34745;52.276;10.528;2023-03-13T03:40:44;32.27;;;5.47;;
48935;SDS011;34745;52.276;10.528;2023-03-13T03:43:11;30.37;;;5.17;;
48935;SDS011;34745;52.276;10.528;2023-03-13T03:45:39;28.50;;;5.30;;
48935;SDS011;34745;52.276;10.528;2023-03-13T03:48:06;30.37;;;5.00;;
48935;SDS011;34745;52.276;10.528;2023-03-13T03:50:33;33.13;;;5.30;;
48935;SDS011;34745;52.276;10.528;2023-03-13T03:53:00;28.97;;;5.37;;
48935;SDS011;34745;52.276;10.528;2023-03-13T03:55:28;20.50;;;4.87;;
48935;SDS011;34745;52.276;10.528;2023-03-13T03:57:55;24.80;;;5.33;;
48935;SDS011;34745;52.276;10.528;2023-03-13T04:00:22;25.30;;;5.40;;
48935;SDS011;34745;52.276;10.528;2023-03-13T04:02:51;29.37;;;4.83;;
48935;SDS011;34745;52.276;10.528;2023-03-13T04:05:18;21.70;;;4.63;;
48935;SDS011;34745;52.276;10.528;2023-03-13T04:07:45;34.93;;;5.50;;
48935;SDS011;34745;52.276;10.528;2023-03-13T04:10:12;23.40;;;4.97;;
48935;SDS011;34745;52.276;10.528;2023-03-13T04:12:39;31.50;;;5.67;;
48935;SDS011;34745;52.276;10.528;2023-03-13T04:15:07;25.37;;;4.53;;
48935;SDS011;34745;52.276;10.528;2023-03-13T04:17:35;25.80;;;5.10;;
48935;SDS011;34745;52.276;10.528;2023-03-13T04:20:04;31.50;;;6.27;;
48935;SDS011;34745;52.276;10.528;2023-03-13T04:22:32;27.17;;;5.13;;
48935;SDS011;34745;52.276;10.528;2023-03-13T04:24:59;44.77;;;12.23;;
48935;SDS011;34745;52.276;10.528;2023-03-13T04:27:26;31.07;;;5.80;;
48935;SDS011;34745;52.276;10.528;2023-03-13T04:29:53;23.30;;;5.37;;
48935;SDS011;34745;52.276;10.528;2023-03-13T04:32:20;28.10;;;4.67;;
48935;SDS011;34745;52.276;10.528;2023-03-13T04:34:47;26.83;;;5.00;;
48935;SDS011;34745;52.276;10.528;2023-03-13T04:37:15;32.17;;;5.80;;
48935;SDS011;34745;52.276;10.528;2023-03-13T04:39:42;27.80;;;5.30;;
48935;SDS011;34745;52.276;10.528;2023-03-13T04:42:10;27.50;;;5.77;;
48935;SDS011;34745;52.276;10.528;2023-03-13T04:44:37;32.27;;;5.70;;
48935;SDS011;34745;52.276;10.528;2023-03-13T04:47:08;31.43;;;5.50;;
48935;SDS011;34745;52.276;10.528;2023-03-13T04:49:35;28.60;;;5.83;;
48935;SDS011;34745;52.276;10.528;2023-03-13T04:52:02;31.53;;;5.37;;
48935;SDS011;34745;52.276;10.528;2023-03-13T04:54:31;32.50;;;6.33;;
48935;SDS011;34745;52.276;10.528;2023-03-13T04:56:58;33.67;;;6.60;;
48935;SDS011;34745;52.276;10.528;2023-03-13T04:59:25;28.87;;;5.67;;
48935;SDS011;34745;52.276;10.528;2023-03-13T05:01:52;28.40;;;5.60;;
48935;SDS011;34745;52.276;10.528;2023-03-13T05:04:21;25.47;;;5.23;;
48935;SDS011;34745;52.276;10.528;2023-03-13T05:06:48;26.73;;;6.03;;
48935;SDS011;34745;52.276;10.528;2023-03-13T05:09:15;29.00;;;6.10;;
48935;SDS011;34745;52.276;10.528;2023-03-13T05:11:43;35.90;;;5.80;;
48935;SDS011;34745;52.276;10.528;2023-03-13T05:14:10;28.07;;;5.20;;
48935;SDS011;34745;52.276;10.528;2023-03-13T05:16:37;24.37;;;5.73;;
48935;SDS011;34745;52.276;10.528;2023-03-13T05:19:05;29.57;;;5.60;;
48935;SDS011;34745;52.276;10.528;2023-03-13T05:21:31;28.37;;;5.70;;
48935;SDS011;34745;52.276;10.528;2023-03-13T05:23:59;26.43;;;4.87;;
48935;SDS011;34745;52.276;10.528;2023-03-13T05:26:26;23.23;;;4.90;;
48935;SDS011;34745;52.276;10.528;2023-03-13T05:28:54;28.07;;;5.30;;
48935;SDS011;34745;52.276;10.528;2023-03-13T05:31:21;31.37;;;5.47;;
48935;SDS011;34745;52.276;10.528;2023-03-13T05:33:48;27.23;;;5.97;;
48935;SDS011;34745;52.276;10.528;2023-03-13T05:36:15;24.80;;;4.83;;
48935;SDS011;34745;52.276;10.528;2023-03-13T05:38:42;22.37;;;4.97;;
48935;SDS011;34745;52.276;10.528;2023-03-13T05:41:09;20.00;;;4.67;;
48935;SDS011;34745;52.276;10.528;2023-03-13T05:43:36;18.13;;;4.37;;
48935;SDS011;34745;52.276;10.528;2023-03-13T05:46:04;25.57;;;4.87;;
48935;SDS011;34745;52.276;10.528;2023-03-13T05:48:32;17.90;;;4.13;;
48935;SDS011;34745;52.276;10.528;2023-03-13T05:50:59;23.23;;;4.80;;
48935;SDS011;34745;52.276;10.528;2023-03-13T05:53:26;28.50;;;5.70;;
48935;SDS011;34745;52.276;10.528;2023-03-13T05:55:53;19.27;;;4.40;;
48935;SDS011;34745;52.276;10.528;2023-03-13T05:58:20;22.50;;;4.77;;
48935;SDS011;34745;52.276;10.528;2023-03-13T06:00:47;17.53;;;4.43;;
48935;SDS011;34745;52.276;10.528;2023-03-13T06:03:15;23.70;;;5.40;;
48935;SDS011;34745;52.276;10.528;2023-03-13T06:05:42;15.47;;;4.70;;
48935;SDS011;34745;52.276;10.528;2023-03-13T06:08:09;25.43;;;5.27;;
48935;SDS011;34745;52.276;10.528;2023-03-13T06:10:36;16.37;;;4.83;;
48935;SDS011;34745;52.276;10.528;2023-03-13T06:13:03;16.80;;;5.00;;
48935;SDS011;34745;52.276;10.528;2023-03-13T06:15:49;28.60;;;5.93;;
48935;SDS011;34745;52.276;10.528;2023-03-13T06:18:19;28.93;;;6.40;;
48935;SDS011;34745;52.276;10.528;2023-03-13T06:20:46;21.63;;;6.73;;
48935;SDS011;34745;52.276;10.528;2023-03-13T06:23:14;24.93;;;6.43;;
48935;SDS011;34745;52.276;10.528;2023-03-13T06:25:41;21.13;;;5.87;;
48935;SDS011;34745;52.276;10.528;2023-03-13T06:28:13;18.13;;;5.63;;
48935;SDS011;34745;52.276;10.528;2023-03-13T06:30:40;22.43;;;6.03;;
48935;SDS011;34745;52.276;10.528;2023-03-13T06:33:07;20.07;;;7.70;;
48935;SDS011;34745;52.276;10.528;2023-03-13T06:35:38;20.27;;;8.10;;
48935;SDS011;34745;52.276;10.528;2023-03-13T06:38:21;20.97;;;8.50;;
48935;SDS011;34745;52.276;10.528;2023-03-13T06:40:48;24.10;;;8.57;;
48935;SDS011;34745;52.276;10.528;2023-03-13T06:43:15;23.23;;;8.13;;
48935;SDS011;34745;52.276;10.528;2023-03-13T06:45:42;14.80;;;6.30;;
48935;SDS011;34745;52.276;10.528;2023-03-13T06:48:09;16.63;;;4.50;;
48935;SDS011;34745;52.276;10.528;2023-03-13T06:50:38;16.00;;;4.37;;
48935;SDS011;34745;52.276;10.528;2023-03-13T06:53:05;13.97;;;4.43;;
48935;SDS011;34745;52.276;10.528;2023-03-13T06:55:32;15.07;;;4.47;;
48935;SDS011;34745;52.276;10.528;2023-03-13T06:57:59;14.90;;;4.07;;
48935;SDS011;34745;52.276;10.528;2023-03-13T07:00:26;10.97;;;3.53;;
48935;SDS011;34745;52.276;10.528;2023-03-13T07:02:54;14.27;;;3.60;;
48935;SDS011;34745;52.276;10.528;2023-03-13T07:05:20;16.47;;;4.20;;
48935;SDS011;34745;52.276;10.528;2023-03-13T07:07:48;11.93;;;3.50;;
48935;SDS011;34745;52.276;10.528;2023-03-13T07:10:16;10.37;;;3.50;;
48935;SDS011;34745;52.276;10.528;2023-03-13T07:12:43;11.03;;;3.67;;
48935;SDS011;34745;52.276;10.528;2023-03-13T07:15:10;8.17;;;2.07;;
48935;SDS011;34745;52.276;10.528;2023-03-13T07:17:37;13.30;;;3.10;;
48935;SDS011;34745;52.276;10.528;2023-03-13T07:20:04;10.27;;;3.20;;
48935;SDS011;34745;52.276;10.528;2023-03-13T07:22:35;8.73;;;2.73;;
48935;SDS011;34745;52.276;10.528;2023-03-13T07:25:04;9.40;;;2.70;;
48935;SDS011;34745;52.276;10.528;2023-03-13T07:27:32;6.23;;;2.67;;
48935;SDS011;34745;52.276;10.528;2023-03-13T07:29:59;9.33;;;2.87;;
48935;SDS011;34745;52.276;10.528;2023-03-13T07:32:29;8.40;;;2.70;;
48935;SDS011;34745;52.276;10.528;2023-03-13T07:34:57;10.77;;;3.07;;
48935;SDS011;34745;52.276;10.528;2023-03-13T07:37:23;13.90;;;2.83;;
48935;SDS011;34745;52.276;10.528;2023-03-13T07:39:50;8.80;;;2.90;;
48935;SDS011;34745;52.276;10.528;2023-03-13T07:42:20;8.33;;;2.60;;
48935;SDS011;34745;52.276;10.528;2023-03-13T07:44:46;7.37;;;2.73;;
48935;SDS011;34745;52.276;10.528;2023-03-13T07:47:13;6.30;;;2.60;;
48935;SDS011;34745;52.276;10.528;2023-03-13T07:49:40;9.10;;;2.93;;
48935;SDS011;34745;52.276;10.528;2023-03-13T07:52:09;7.87;;;2.83;;
48935;SDS011;34745;52.276;10.528;2023-03-13T07:54:36;11.17;;;3.03;;
48935;SDS011;34745;52.276;10.528;2023-03-13T07:57:03;9.70;;;3.03;;
48935;SDS011;34745;52.276;10.528;2023-03-13T07:59:32;8.80;;;2.87;;
48935;SDS011;34745;52.276;10.528;2023-03-13T08:01:59;7.37;;;2.50;;
48935;SDS011;34745;52.276;10.528;2023-03-13T08:04:25;9.87;;;3.00;;
48935;SDS011;34745;52.276;10.528;2023-03-13T08:06:52;5.57;;;3.03;;
48935;SDS011;34745;52.276;10.528;2023-03-13T08:09:20;4.57;;;2.20;;
48935;SDS011;34745;52.276;10.528;2023-03-13T08:11:47;7.93;;;2.30;;
48935;SDS011;34745;52.276;10.528;2023-03-13T08:14:14;5.30;;;2.30;;
48935;SDS011;34745;52.276;10.528;2023-03-13T08:16:43;8.87;;;2.43;;
48935;SDS011;34745;52.276;10.528;2023-03-13T08:19:10;5.73;;;2.10;;
48935;SDS011;34745;52.276;10.528;2023-03-13T08:21:37;4.50;;;2.30;;
48935;SDS011;34745;52.276;10.528;2023-03-13T08:24:04;6.60;;;2.60;;
48935;SDS011;34745;52.276;10.528;2023-03-13T08:26:33;6.93;;;2.37;;
48935;SDS011;34745;52.276;10.528;2023-03-13T08:29:03;5.50;;;2.00;;
48935;SDS011;34745;52.276;10.528;2023-03-13T08:31:32;4.80;;;2.10;;
48935;SDS011;34745;52.276;10.528;2023-03-13T08:34:02;5.43;;;2.33;;
48935;SDS011;34745;52.276;10.528;2023-03-13T08:36:30;8.47;;;2.93;;
48935;SDS011;34745;52.276;10.528;2023-03-13T08:38:59;5.43;;;1.93;;
48935;SDS011;34745;52.276;10.528;2023-03-13T08:41:27;7.87;;;2.00;;
48935;SDS011;34745;52.276;10.528;2023-03-13T08:43:59;5.33;;;2.10;;
48935;SDS011;34745;52.276;10.528;2023-03-13T08:46:27;6.63;;;2.40;;
48935;SDS011;34745;52.276;10.528;2023-03-13T08:48:55;7.30;;;2.57;;
48935;SDS011;34745;52.276;10.528;2023-03-13T08:51:24;6.47;;;2.53;;
48935;SDS011;34745;52.276;10.528;2023-03-13T08:53:52;7.23;;;2.33;;
48935;SDS011;34745;52.276;10.528;2023-03-13T08:56:21;7.00;;;1.97;;
48935;SDS011;34745;52.276;10.528;2023-03-13T08:58:50;3.90;;;2.10;;
48935;SDS011;34745;52.276;10.528;2023-03-13T09:01:19;4.20;;;2.17;;
48935;SDS011;34745;52.276;10.528;2023-03-13T09:03:47;5.67;;;2.17;;
48935;SDS011;34745;52.276;10.528;2023-03-13T09:06:14;5.10;;;1.97;;
48935;SDS011;34745;52.276;10.528;2023-03-13T09:08:43;5.10;;;2.00;;
48935;SDS011;34745;52.276;10.528;2023-03-13T09:11:10;4.33;;;2.23;;
48935;SDS011;34745;52.276;10.528;2023-03-13T09:13:39;3.67;;;1.87;;
48935;SDS011;34745;52.276;10.528;2023-03-13T09:16:08;5.73;;;1.90;;
48935;SDS011;34745;52.276;10.528;2023-03-13T09:18:37;7.30;;;2.10;;
48935;SDS011;34745;52.276;10.528;2023-03-13T09:21:05;5.13;;;2.10;;
48935;SDS011;34745;52.276;10.528;2023-03-13T09:23:33;3.60;;;1.90;;
48935;SDS011;34745;52.276;10.528;2023-03-13T09:26:01;4.80;;;2.43;;
48935;SDS011;34745;52.276;10.528;2023-03-13T09:28:28;3.63;;;2.00;;
48935;SDS011;34745;52.276;10.528;2023-03-13T09:30:55;5.37;;;1.97;;
48935;SDS011;34745;52.276;10.528;2023-03-13T09:33:32;6.07;;;1.93;;
48935;SDS011;34745;52.276;10.528;2023-03-13T09:35:58;2.63;;;1.57;;
48935;SDS011;34745;52.276;10.528;2023-03-13T09:38:26;3.90;;;1.50;;
48935;SDS011;34745;52.276;10.528;2023-03-13T09:40:53;2.07;;;1.57;;
48935;SDS011;34745;52.276;10.528;2023-03-13T09:43:36;3.13;;;1.90;;
48935;SDS011;34745;52.276;10.528;2023-03-13T09:46:10;4.97;;;1.73;;
48935;SDS011;34745;52.276;10.528;2023-03-13T09:48:43;4.00;;;1.70;;
48935;SDS011;34745;52.276;10.528;2023-03-13T09:51:15;3.20;;;1.40;;
48935;SDS011;34745;52.276;10.528;2023-03-13T09:53:45;2.83;;;1.77;;
48935;SDS011;34745;52.276;10.528;2023-03-13T09:56:18;3.33;;;1.70;;
48935;SDS011;34745;52.276;10.528;2023-03-13T09:58:51;5.67;;;1.97;;
48935;SDS011;34745;52.276;10.528;2023-03-13T10:01:23;2.80;;;1.70;;
48935;SDS011;34745;52.276;10.528;2023-03-13T10:03:58;5.80;;;2.10;;
48935;SDS011;34745;52.276;10.528;2023-03-13T10:06:32;4.47;;;1.67;;
48935;SDS011;34745;52.276;10.528;2023-03-13T10:09:02;5.03;;;1.50;;
48935;SDS011;34745;52.276;10.528;2023-03-13T10:11:32;5.00;;;1.70;;
48935;SDS011;34745;52.276;10.528;2023-03-13T10:14:10;3.23;;;1.63;;
48935;SDS011;34745;52.276;10.528;2023-03-13T10:16:43;8.63;;;1.87;;
48935;SDS011;34745;52.276;10.528;2023-03-13T10:19:14;3.47;;;1.57;;
48935;SDS011;34745;52.276;10.528;2023-03-13T10:21:43;2.00;;;1.40;;
48935;SDS011;34745;52.276;10.528;2023-03-13T10:24:15;4.53;;;1.30;;
48935;SDS011;34745;52.276;10.528;2023-03-13T10:26:56;3.03;;;1.70;;
48935;SDS011;34745;52.276;10.528;2023-03-13T10:29:26;1.40;;;1.30;;
48935;SDS011;34745;52.276;10.528;2023-03-13T10:31:55;2.10;;;1.70;;
48935;SDS011;34745;52.276;10.528;2023-03-13T10:34:24;2.30;;;1.40;;
48935;SDS011;34745;52.276;10.528;2023-03-13T10:36:56;2.00;;;1.40;;
48935;SDS011;34745;52.276;10.528;2023-03-13T10:39:25;2.00;;;1.43;;
48935;SDS011;34745;52.276;10.528;2023-03-13T10:41:57;3.43;;;1.97;;
48935;SDS011;34745;52.276;10.528;2023-03-13T10:44:38;3.10;;;1.63;;
48935;SDS011;34745;52.276;10.528;2023-03-13T10:47:05;4.03;;;1.57;;
48935;SDS011;34745;52.276;10.528;2023-03-13T10:49:36;2.17;;;1.40;;
48935;SDS011;34745;52.276;10.528;2023-03-13T10:52:26;1.77;;;1.40;;
48935;SDS011;34745;52.276;10.528;2023-03-13T10:54:58;1.90;;;1.60;;
48935;SDS011;34745;52.276;10.528;2023-03-13T10:57:28;1.50;;;1.40;;
48935;SDS011;34745;52.276;10.528;2023-03-13T10:59:57;6.40;;;1.50;;
48935;SDS011;34745;52.276;10.528;2023-03-13T11:02:27;1.60;;;1.50;;
48935;SDS011;34745;52.276;10.528;2023-03-13T11:04:59;2.70;;;1.80;;
48935;SDS011;34745;52.276;10.528;2023-03-13T11:07:28;5.07;;;1.70;;
48935;SDS011;34745;52.276;10.528;2023-03-13T11:09:58;2.97;;;1.50;;
48935;SDS011;34745;52.276;10.528;2023-03-13T11:12:27;5.23;;;1.93;;
48935;SDS011;34745;52.276;10.528;2023-03-13T11:14:59;2.73;;;1.70;;
48935;SDS011;34745;52.276;10.528;2023-03-13T11:17:29;3.33;;;1.53;;
48935;SDS011;34745;52.276;10.528;2023-03-13T11:20:07;2.93;;;1.60;;
48935;SDS011;34745;52.276;10.528;2023-03-13T11:22:46;5.80;;;3.40;;
48935;SDS011;34745;52.276;10.528;2023-03-13T11:25:20;3.70;;;1.80;;
48935;SDS011;34745;52.276;10.528;2023-03-13T11:27:57;1.57;;;1.47;;
48935;SDS011;34745;52.276;10.528;2023-03-13T11:30:50;2.77;;;1.60;;
48935;SDS011;34745;52.276;10.528;2023-03-13T11:33:27;1.50;;;1.40;;
48935;SDS011;34745;52.276;10.528;2023-03-13T11:35:59;3.63;;;1.63;;
48935;SDS011;34745;52.276;10.528;2023-03-13T11:38:31;1.33;;;1.30;;
48935;SDS011;34745;52.276;10.528;2023-03-13T11:41:06;2.97;;;1.40;;
48935;SDS011;34745;52.276;10.528;2023-03-13T11:43:54;3.30;;;1.60;;
48935;SDS011;34745;52.276;10.528;2023-03-13T11:46:43;2.03;;;1.43;;
48935;SDS011;34745;52.276;10.528;2023-03-13T11:49:37;2.50;;;1.20;;
48935;SDS011;34745;52.276;10.528;2023-03-13T11:52:24;2.30;;;1.80;;
48935;SDS011;34745;52.276;10.528;2023-03-13T11:55:19;2.97;;;1.50;;
48935;SDS011;34745;52.276;10.528;2023-03-13T11:57:57;3.87;;;1.80;;
48935;SDS011;34745;52.276;10.528;2023-03-13T12:00:40;3.80;;;1.40;;
48935;SDS011;34745;52.276;10.528;2023-03-13T12:03:15;2.13;;;1.20;;
48935;SDS011;34745;52.276;10.528;2023-03-13T12:05:46;2.70;;;1.40;;
48935;SDS011;34745;52.276;10.528;2023-03-13T12:08:17;2.20;;;1.43;;
48935;SDS011;34745;52.276;10.528;2023-03-13T12:10:51;1.73;;;1.60;;
48935;SDS011;34745;52.276;10.528;2023-03-13T12:13:30;2.20;;;1.40;;
48935;SDS011;34745;52.276;10.528;2023-03-13T12:16:02;2.97;;;1.67;;
48935;SDS011;34745;52.276;10.528;2023-03-13T12:18:37;2.47;;;1.50;;
48935;SDS011;34745;52.276;10.528;2023-03-13T12:21:06;6.73;;;1.70;;
48935;SDS011;34745;52.276;10.528;2023-03-13T12:23:41;2.53;;;1.40;;
48935;SDS011;34745;52.276;10.528;2023-03-13T12:26:13;1.53;;;1.43;;
48935;SDS011;34745;52.276;10.528;2023-03-13T12:28:42;5.20;;;1.83;;
48935;SDS011;34745;52.276;10.528;2023-03-13T12:31:17;5.43;;;1.60;;
48935;SDS011;34745;52.276;10.528;2023-03-13T12:33:52;2.33;;;1.50;;
48935;SDS011;34745;52.276;10.528;2023-03-13T12:36:25;5.80;;;1.80;;
48935;SDS011;34745;52.276;10.528;2023-03-13T12:39:00;3.83;;;1.60;;
48935;SDS011;34745;52.276;10.528;2023-03-13T12:41:37;3.50;;;1.60;;
48935;SDS011;34745;52.276;10.528;2023-03-13T12:44:09;1.30;;;1.20;;
48935;SDS011;34745;52.276;10.528;2023-03-13T12:46:40;2.23;;;1.50;;
48935;SDS011;34745;52.276;10.528;2023-03-13T12:49:14;4.10;;;1.70;;
48935;SDS011;34745;52.276;10.528;2023-03-13T12:52:21;3.33;;;1.67;;
48935;SDS011;34745;52.276;10.528;2023-03-13T12:55:06;2.30;;;1.50;;
48935;SDS011;34745;52.276;10.528;2023-03-13T12:58:00;2.57;;;1.60;;
48935;SDS011;34745;52.276;10.528;2023-03-13T13:00:37;4.23;;;1.60;;
48935;SDS011;34745;52.276;10.528;2023-03-13T13:03:09;2.67;;;1.60;;
48935;SDS011;34745;52.276;10.528;2023-03-13T13:05:58;3.33;;;1.57;;
48935;SDS011;34745;52.276;10.528;2023-03-13T13:08:32;1.53;;;1.43;;
48935;SDS011;34745;52.276;10.528;2023-03-13T13:17:27;1.50;;;0.90;;
48935;SDS011;34745;52.276;10.528;2023-03-13T13:23:14;2.87;;;1.20;;
48935;SDS011;34745;52.276;10.528;2023-03-13T13:25:50;2.65;;;1.50;;
48935;SDS011;34745;52.276;10.528;2023-03-13T13:28:22;3.15;;;1.20;;
48935;SDS011;34745;52.276;10.528;2023-03-13T13:30:53;1.40;;;0.90;;
48935;SDS011;34745;52.276;10.528;2023-03-13T13:33:37;1.10;;;0.80;;
48935;SDS011;34745;52.276;10.528;2023-03-13T13:36:26;1.13;;;0.90;;
48935;SDS011;34745;52.276;10.528;2023-03-13T13:38:55;1.33;;;1.10;;
48935;SDS011;34745;52.276;10.528;2023-03-13T13:41:33;1.13;;;1.02;;
48935;SDS011;34745;52.276;10.528;2023-03-13T13:46:56;1.33;;;1.00;;
48935;SDS011;34745;52.276;10.528;2023-03-13T13:49:31;5.00;;;1.20;;
48935;SDS011;34745;52.276;10.528;2023-03-13T13:52:18;2.53;;;1.25;;
48935;SDS011;34745;52.276;10.528;2023-03-13T13:54:58;2.30;;;1.10;;
48935;SDS011;34745;52.276;10.528;2023-03-13T13:57:26;2.50;;;1.10;;
48935;SDS011;34745;52.276;10.528;2023-03-13T13:59:58;3.03;;;1.30;;
48935;SDS011;34745;52.276;10.528;2023-03-13T14:02:31;1.30;;;1.20;;
48935;SDS011;34745;52.276;10.528;2023-03-13T14:05:03;1.58;;;1.10;;
48935;SDS011;34745;52.276;10.528;2023-03-13T14:07:45;7.78;;;1.13;;
48935;SDS011;34745;52.276;10.528;2023-03-13T14:10:33;1.40;;;1.00;;
48935;SDS011;34745;52.276;10.528;2023-03-13T14:13:09;2.13;;;1.33;;
48935;SDS011;34745;52.276;10.528;2023-03-13T14:15:40;1.63;;;1.20;;
48935;SDS011;34745;52.276;10.528;2023-03-13T14:18:09;1.33;;;1.00;;
48935;SDS011;34745;52.276;10.528;2023-03-13T14:20:38;1.00;;;1.00;;
48935;SDS011;34745;52.276;10.528;2023-03-13T14:23:27;1.92;;;0.98;;
48935;SDS011;34745;52.276;10.528;2023-03-13T14:25:57;1.67;;;1.10;;
48935;SDS011;34745;52.276;10.528;2023-03-13T14:28:25;2.13;;;1.20;;
48935;SDS011;34745;52.276;10.528;2023-03-13T14:30:54;2.22;;;1.35;;
48935;SDS011;34745;52.276;10.528;2023-03-13T14:33:22;1.63;;;1.00;;
48935;SDS011;34745;52.276;10.528;2023-03-13T14:35:52;2.50;;;1.15;;
48935;SDS011;34745;52.276;10.528;2023-03-13T14:38:20;2.33;;;1.30;;
48935;SDS011;34745;52.276;10.528;2023-03-13T14:40:48;3.33;;;1.30;;
48935;SDS011;34745;52.276;10.528;2023-03-13T14:43:19;1.73;;;0.90;;
48935;SDS011;34745;52.276;10.528;2023-03-13T14:45:48;1.25;;;0.93;;
48935;SDS011;34745;52.276;10.528;2023-03-13T14:48:18;0.90;;;0.90;;
48935;SDS011;34745;52.276;10.528;2023-03-13T14:50:48;0.82;;;0.82;;
48935;SDS011;34745;52.276;10.528;2023-03-13T14:53:37;5.72;;;1.00;;
48935;SDS011;34745;52.276;10.528;2023-03-13T14:56:08;2.72;;;1.20;;
48935;SDS011;34745;52.276;10.528;2023-03-13T14:58:38;0.77;;;0.77;;
48935;SDS011;34745;52.276;10.528;2023-03-13T15:01:13;0.80;;;0.80;;
48935;SDS011;34745;52.276;10.528;2023-03-13T15:03:48;0.80;;;0.80;;